메인 페이지
METAR-TAF:

METAR-TAF

공항 :

킨샤사, 콩고

위도: 04-23S, 경도: 015-26E, 고도: 309m

현재 날씨관측

예보는 4 시간 38분 전, 18:00시(UTC)에 발표되었습니다.
8kt
온도 26°C
습도 70%
기압 1014 hPa
시정: 6000m

METAR: FZAA 181800Z 28008KT 6000 NSC 26/20 Q1014 NOSIG

시각: 23:38 (22:38 UTC)

예보

예보는 11 시간 38분 전, 11:00시(UTC)에 발표되었습니다.
예보 대상 시간: 18일 12시부터 19일 18시까지 (UTC)
북서10kt
시정: 6000m
고도 2200ft 상공 구름 보통
전환 중
18일 20시부터 18일 22시까지 (UTC)
남남서4kt
고도 1400ft 상공 구름 많음
일시적
19일 05시부터 19일 09시까지 (UTC)
시정: 4000m
박무

TAF: FZAA 181100Z 1812/1918 32010KT 6000 SCT022 BECMG 1820/1822 20004KT BKN014 TEMPO 1905/1909 4000 BR

4,000개 이상의 공항 관측 자료 및 예보 (METAR 및 TAF 보고).

지도상에서 검색 가능한 기상관측소가 노란 점과 빨간 점으로 표시되어 있습니다.

기상관측소 명을 보려면 표시 위로 마우스를 이동하세요.

날씨 관측과 예보를 보려면 클릭하세요.

지도 변경 : 확대하려면 엑스 표시가 있는 녹색 버튼, 축소하려면 빼기 표시가 있는 녹색 버튼, 다음 페이지의 지도를 보려면 녹색 화살표를 클릭하세요.


METAR-TAF: